sensor_id;sensor_type;location;lat;lon;timestamp;pressure;altitude;pressure_sealevel;temperature;humidity
69566;BME280;56777;55.930;37.524;2024-01-15T00:00:17;100491.97;;;-1.21;100.00
69566;BME280;56777;55.930;37.524;2024-01-15T00:02:43;100492.66;;;-1.24;100.00
69566;BME280;56777;55.930;37.524;2024-01-15T00:05:08;100471.66;;;-1.31;100.00
69566;BME280;56777;55.930;37.524;2024-01-15T00:07:35;100486.63;;;-1.24;100.00
69566;BME280;56777;55.930;37.524;2024-01-15T00:10:00;100480.63;;;-1.25;100.00
69566;BME280;56777;55.930;37.524;2024-01-15T00:12:26;100472.97;;;-1.23;100.00
69566;BME280;56777;55.930;37.524;2024-01-15T00:14:52;100461.91;;;-1.22;100.00
69566;BME280;56777;55.930;37.524;2024-01-15T00:17:18;100451.72;;;-1.21;100.00
69566;BME280;56777;55.930;37.524;2024-01-15T00:19:43;100455.19;;;-1.20;100.00
69566;BME280;56777;55.930;37.524;2024-01-15T00:22:09;100450.84;;;-1.21;100.00
69566;BME280;56777;55.930;37.524;2024-01-15T00:24:35;100447.47;;;-1.20;100.00
69566;BME280;56777;55.930;37.524;2024-01-15T00:27:00;100457.84;;;-1.19;100.00
69566;BME280;56777;55.930;37.524;2024-01-15T00:29:25;100456.16;;;-1.18;100.00
69566;BME280;56777;55.930;37.524;2024-01-15T00:31:51;100456.16;;;-1.18;100.00
69566;BME280;56777;55.930;37.524;2024-01-15T00:34:17;100442.34;;;-1.20;100.00
69566;BME280;56777;55.930;37.524;2024-01-15T00:36:42;100438.97;;;-1.19;100.00
69566;BME280;56777;55.930;37.524;2024-01-15T00:39:08;100456.16;;;-1.18;100.00
69566;BME280;56777;55.930;37.524;2024-01-15T00:41:36;100434.00;;;-1.16;100.00
69566;BME280;56777;55.930;37.524;2024-01-15T00:44:01;100439.16;;;-1.16;100.00
69566;BME280;56777;55.930;37.524;2024-01-15T00:46:28;100444.28;;;-1.16;100.00
69566;BME280;56777;55.930;37.524;2024-01-15T00:48:54;100427.28;;;-1.14;100.00
69566;BME280;56777;55.930;37.524;2024-01-15T00:51:19;100433.13;;;-1.17;100.00
69566;BME280;56777;55.930;37.524;2024-01-15T00:53:45;100340.97;;;-1.53;100.00
69566;BME280;56777;55.930;37.524;2024-01-15T00:56:10;100418.34;;;-1.06;100.00
69566;BME280;56777;55.930;37.524;2024-01-15T00:58:36;100399.59;;;-1.03;100.00
69566;BME280;56777;55.930;37.524;2024-01-15T01:01:01;100395.38;;;-1.03;100.00
69566;BME280;56777;55.930;37.524;2024-01-15T01:03:27;100353.06;;;-1.23;100.00
69566;BME280;56777;55.930;37.524;2024-01-15T01:05:52;100397.59;;;-0.94;100.00
69566;BME280;56777;55.930;37.524;2024-01-15T01:08:18;100396.09;;;-0.91;100.00
69566;BME280;56777;55.930;37.524;2024-01-15T01:10:43;100386.78;;;-0.88;100.00
69566;BME280;56777;55.930;37.524;2024-01-15T01:13:09;100388.09;;;-0.80;100.00
69566;BME280;56777;55.930;37.524;2024-01-15T01:15:34;100379.94;;;-0.73;100.00
69566;BME280;56777;55.930;37.524;2024-01-15T01:18:00;100341.97;;;-0.92;100.00
69566;BME280;56777;55.930;37.524;2024-01-15T01:20:26;100372.50;;;-0.69;100.00
69566;BME280;56777;55.930;37.524;2024-01-15T01:22:51;100367.31;;;-0.54;100.00
69566;BME280;56777;55.930;37.524;2024-01-15T01:25:17;100373.34;;;-0.53;100.00
69566;BME280;56777;55.930;37.524;2024-01-15T01:27:42;100384.69;;;-0.50;100.00
69566;BME280;56777;55.930;37.524;2024-01-15T01:30:08;100369.25;;;-0.50;100.00
69566;BME280;56777;55.930;37.524;2024-01-15T01:32:34;100363.66;;;-0.42;100.00
69566;BME280;56777;55.930;37.524;2024-01-15T01:34:59;100367.03;;;-0.43;100.00
69566;BME280;56777;55.930;37.524;2024-01-15T01:37:25;100360.44;;;-0.38;100.00
69566;BME280;56777;55.930;37.524;2024-01-15T01:39:50;100364.44;;;-0.43;100.00
69566;BME280;56777;55.930;37.524;2024-01-15T01:42:16;100373.06;;;-0.43;100.00
69566;BME280;56777;55.930;37.524;2024-01-15T01:44:42;100370.84;;;-0.37;100.00
69566;BME280;56777;55.930;37.524;2024-01-15T01:47:07;100374.47;;;-0.33;100.00
69566;BME280;56777;55.930;37.524;2024-01-15T01:49:33;100376.88;;;-0.36;100.00
69566;BME280;56777;55.930;37.524;2024-01-15T01:52:01;100357.06;;;-0.37;100.00
69566;BME280;56777;55.930;37.524;2024-01-15T01:54:29;100358.16;;;-0.34;100.00
69566;BME280;56777;55.930;37.524;2024-01-15T01:56:57;100355.41;;;-0.37;100.00
69566;BME280;56777;55.930;37.524;2024-01-15T01:59:24;100358.03;;;-0.35;100.00
69566;BME280;56777;55.930;37.524;2024-01-15T02:01:51;100343.59;;;-0.33;100.00
69566;BME280;56777;55.930;37.524;2024-01-15T02:04:18;100343.47;;;-0.35;100.00
69566;BME280;56777;55.930;37.524;2024-01-15T02:06:43;100346.69;;;-0.39;100.00
69566;BME280;56777;55.930;37.524;2024-01-15T02:09:09;100297.56;;;-0.58;100.00
69566;BME280;56777;55.930;37.524;2024-01-15T02:11:41;100348.41;;;-0.23;100.00
69566;BME280;56777;55.930;37.524;2024-01-15T02:14:07;100353.13;;;-0.16;100.00
69566;BME280;56777;55.930;37.524;2024-01-15T02:16:32;100353.38;;;-0.11;100.00
69566;BME280;56777;55.930;37.524;2024-01-15T02:18:58;100361.09;;;-0.11;100.00
69566;BME280;56777;55.930;37.524;2024-01-15T02:21:23;100356.19;;;-0.07;100.00
69566;BME280;56777;55.930;37.524;2024-01-15T02:23:51;100354.19;;;0.04;100.00
69566;BME280;56777;55.930;37.524;2024-01-15T02:26:17;100350.81;;;0.05;100.00
69566;BME280;56777;55.930;37.524;2024-01-15T02:28:43;100346.88;;;0.12;100.00
69566;BME280;56777;55.930;37.524;2024-01-15T02:31:09;100288.41;;;-0.22;100.00
69566;BME280;56777;55.930;37.524;2024-01-15T02:33:35;100356.06;;;0.23;100.00
69566;BME280;56777;55.930;37.524;2024-01-15T02:36:00;100350.09;;;0.24;100.00
69566;BME280;56777;55.930;37.524;2024-01-15T02:38:26;100350.56;;;0.17;100.00
69566;BME280;56777;55.930;37.524;2024-01-15T02:40:51;100364.91;;;0.12;100.00
69566;BME280;56777;55.930;37.524;2024-01-15T02:43:17;100377.16;;;0.16;100.00
69566;BME280;56777;55.930;37.524;2024-01-15T02:45:44;100375.63;;;0.19;100.00
69566;BME280;56777;55.930;37.524;2024-01-15T02:48:10;100401.06;;;0.13;100.00
69566;BME280;56777;55.930;37.524;2024-01-15T02:50:35;100395.03;;;0.13;100.00
69566;BME280;56777;55.930;37.524;2024-01-15T02:53:01;100402.16;;;0.02;100.00
69566;BME280;56777;55.930;37.524;2024-01-15T02:55:26;100370.88;;;-0.20;100.00
69566;BME280;56777;55.930;37.524;2024-01-15T02:57:54;100398.66;;;-0.15;100.00
69566;BME280;56777;55.930;37.524;2024-01-15T03:00:20;100415.47;;;-0.21;100.00
69566;BME280;56777;55.930;37.524;2024-01-15T03:02:46;100409.53;;;-0.35;100.00
69566;BME280;56777;55.930;37.524;2024-01-15T03:05:11;100410.53;;;-0.48;100.00
69566;BME280;56777;55.930;37.524;2024-01-15T03:07:37;100406.81;;;-0.53;100.00
69566;BME280;56777;55.930;37.524;2024-01-15T03:10:04;100404.59;;;-0.62;100.00
69566;BME280;56777;55.930;37.524;2024-01-15T03:12:30;100407.78;;;-0.66;100.00
69566;BME280;56777;55.930;37.524;2024-01-15T03:14:55;100368.50;;;-0.93;100.00
69566;BME280;56777;55.930;37.524;2024-01-15T03:17:20;100410.81;;;-0.73;100.00
69566;BME280;56777;55.930;37.524;2024-01-15T03:19:46;100418.34;;;-0.76;100.00
69566;BME280;56777;55.930;37.524;2024-01-15T03:22:12;100420.03;;;-0.77;100.00
69566;BME280;56777;55.930;37.524;2024-01-15T03:24:37;100426.69;;;-0.80;100.00
69566;BME280;56777;55.930;37.524;2024-01-15T03:27:03;100421.34;;;-0.83;100.00
69566;BME280;56777;55.930;37.524;2024-01-15T03:29:29;100421.97;;;-0.87;100.00
69566;BME280;56777;55.930;37.524;2024-01-15T03:31:54;100423.56;;;-0.89;100.00
69566;BME280;56777;55.930;37.524;2024-01-15T03:34:20;100416.56;;;-0.92;100.00
69566;BME280;56777;55.930;37.524;2024-01-15T03:36:45;100431.09;;;-0.93;100.00
69566;BME280;56777;55.930;37.524;2024-01-15T03:39:11;100387.72;;;-1.31;100.00
69566;BME280;56777;55.930;37.524;2024-01-15T03:41:36;100438.66;;;-0.96;100.00
69566;BME280;56777;55.930;37.524;2024-01-15T03:44:02;100424.59;;;-1.16;100.00
69566;BME280;56777;55.930;37.524;2024-01-15T03:46:28;100455.84;;;-0.95;100.00
69566;BME280;56777;55.930;37.524;2024-01-15T03:48:53;100462.59;;;-0.97;100.00
69566;BME280;56777;55.930;37.524;2024-01-15T03:51:19;100459.22;;;-0.96;100.00
69566;BME280;56777;55.930;37.524;2024-01-15T03:53:45;100469.50;;;-0.96;100.00
69566;BME280;56777;55.930;37.524;2024-01-15T03:56:10;100474.66;;;-0.96;100.00
69566;BME280;56777;55.930;37.524;2024-01-15T03:58:36;100441.03;;;-1.14;100.00
69566;BME280;56777;55.930;37.524;2024-01-15T04:01:02;100478.22;;;-0.94;100.00
69566;BME280;56777;55.930;37.524;2024-01-15T04:03:28;100479.97;;;-0.93;100.00
69566;BME280;56777;55.930;37.524;2024-01-15T04:05:53;100488.69;;;-0.91;100.00
69566;BME280;56777;55.930;37.524;2024-01-15T04:08:20;100490.44;;;-0.89;100.00
69566;BME280;56777;55.930;37.524;2024-01-15T04:10:46;100490.44;;;-0.89;100.00
69566;BME280;56777;55.930;37.524;2024-01-15T04:13:11;100443.13;;;-1.21;100.00
69566;BME280;56777;55.930;37.524;2024-01-15T04:15:37;100465.16;;;-1.11;100.00
69566;BME280;56777;55.930;37.524;2024-01-15T04:18:03;100444.81;;;-1.22;100.00
69566;BME280;56777;55.930;37.524;2024-01-15T04:20:29;100458.84;;;-1.17;100.00
69566;BME280;56777;55.930;37.524;2024-01-15T04:22:54;100504.28;;;-0.87;100.00
69566;BME280;56777;55.930;37.524;2024-01-15T04:25:20;100455.78;;;-1.24;100.00
69566;BME280;56777;55.930;37.524;2024-01-15T04:27:45;100511.03;;;-0.89;100.00
69566;BME280;56777;55.930;37.524;2024-01-15T04:30:11;100508.72;;;-1.00;100.00
69566;BME280;56777;55.930;37.524;2024-01-15T04:32:37;100434.91;;;-1.44;100.00
69566;BME280;56777;55.930;37.524;2024-01-15T04:35:03;100528.06;;;-0.92;100.00
69566;BME280;56777;55.930;37.524;2024-01-15T04:37:28;100525.38;;;-0.93;100.00
69566;BME280;56777;55.930;37.524;2024-01-15T04:39:54;100528.13;;;-0.90;100.00
69566;BME280;56777;55.930;37.524;2024-01-15T04:42:23;100531.59;;;-0.89;100.00
69566;BME280;56777;55.930;37.524;2024-01-15T04:44:49;100533.22;;;-0.92;100.00
69566;BME280;56777;55.930;37.524;2024-01-15T04:47:14;100552.88;;;-0.92;100.00
69566;BME280;56777;55.930;37.524;2024-01-15T04:49:40;100535.50;;;-0.96;100.00
69566;BME280;56777;55.930;37.524;2024-01-15T04:52:05;100550.13;;;-0.95;100.00
69566;BME280;56777;55.930;37.524;2024-01-15T04:54:31;100547.47;;;-0.97;100.00
69566;BME280;56777;55.930;37.524;2024-01-15T04:56:57;100542.22;;;-0.98;100.00
69566;BME280;56777;55.930;37.524;2024-01-15T04:59:22;100551.63;;;-0.99;100.00
69566;BME280;56777;55.930;37.524;2024-01-15T05:01:48;100547.28;;;-1.00;100.00
69566;BME280;56777;55.930;37.524;2024-01-15T05:04:14;100562.59;;;-1.01;100.00
69566;BME280;56777;55.930;37.524;2024-01-15T05:06:40;100557.47;;;-1.01;100.00
69566;BME280;56777;55.930;37.524;2024-01-15T05:09:05;100547.41;;;-1.11;100.00
69566;BME280;56777;55.930;37.524;2024-01-15T05:11:31;100556.38;;;-1.05;100.00
69566;BME280;56777;55.930;37.524;2024-01-15T05:13:56;100570.25;;;-1.03;100.00
69566;BME280;56777;55.930;37.524;2024-01-15T05:16:22;100570.81;;;-1.07;100.00
69566;BME280;56777;55.930;37.524;2024-01-15T05:18:47;100573.91;;;-1.13;100.00
69566;BME280;56777;55.930;37.524;2024-01-15T05:21:13;100573.03;;;-1.13;100.00
69566;BME280;56777;55.930;37.524;2024-01-15T05:23:38;100575.59;;;-1.13;100.00
69566;BME280;56777;55.930;37.524;2024-01-15T05:26:04;100584.56;;;-1.06;100.00
69566;BME280;56777;55.930;37.524;2024-01-15T05:28:29;100582.31;;;-1.15;100.00
69566;BME280;56777;55.930;37.524;2024-01-15T05:30:58;100566.13;;;-1.27;100.00
69566;BME280;56777;55.930;37.524;2024-01-15T05:33:25;100571.94;;;-1.17;100.00
69566;BME280;56777;55.930;37.524;2024-01-15T05:35:51;100576.78;;;-1.21;100.00
69566;BME280;56777;55.930;37.524;2024-01-15T05:38:17;100588.44;;;-1.13;100.00
69566;BME280;56777;55.930;37.524;2024-01-15T05:40:42;100604.06;;;-1.10;100.00
69566;BME280;56777;55.930;37.524;2024-01-15T05:43:08;100582.56;;;-1.25;100.00
69566;BME280;56777;55.930;37.524;2024-01-15T05:45:38;100607.81;;;-1.05;100.00
69566;BME280;56777;55.930;37.524;2024-01-15T05:48:04;100611.56;;;-1.00;100.00
69566;BME280;56777;55.930;37.524;2024-01-15T05:50:30;100606.44;;;-1.00;100.00
69566;BME280;56777;55.930;37.524;2024-01-15T05:52:55;100614.22;;;-0.98;100.00
69566;BME280;56777;55.930;37.524;2024-01-15T05:55:21;100624.69;;;-0.95;100.00
69566;BME280;56777;55.930;37.524;2024-01-15T05:57:46;100598.78;;;-0.98;100.00
69566;BME280;56777;55.930;37.524;2024-01-15T06:00:12;100613.53;;;-0.96;100.00
69566;BME280;56777;55.930;37.524;2024-01-15T06:02:38;100614.72;;;-0.91;100.00
69566;BME280;56777;55.930;37.524;2024-01-15T06:05:05;100613.91;;;-0.89;100.00
69566;BME280;56777;55.930;37.524;2024-01-15T06:07:31;100613.13;;;-0.88;100.00
69566;BME280;56777;55.930;37.524;2024-01-15T06:09:57;100621.63;;;-0.89;100.00
69566;BME280;56777;55.930;37.524;2024-01-15T06:12:23;100601.59;;;-1.08;100.00
69566;BME280;56777;55.930;37.524;2024-01-15T06:14:48;100633.47;;;-0.78;100.00
69566;BME280;56777;55.930;37.524;2024-01-15T06:17:14;100629.53;;;-0.86;100.00
69566;BME280;56777;55.930;37.524;2024-01-15T06:19:39;100621.53;;;-0.91;100.00
69566;BME280;56777;55.930;37.524;2024-01-15T06:22:05;100635.47;;;-0.87;100.00
69566;BME280;56777;55.930;37.524;2024-01-15T06:24:31;100617.97;;;-0.93;100.00
69566;BME280;56777;55.930;37.524;2024-01-15T06:26:56;100636.66;;;-0.82;100.00
69566;BME280;56777;55.930;37.524;2024-01-15T06:29:25;100597.09;;;-0.98;100.00
69566;BME280;56777;55.930;37.524;2024-01-15T06:31:50;100654.41;;;-0.72;100.00
69566;BME280;56777;55.930;37.524;2024-01-15T06:34:16;100651.06;;;-0.71;100.00
69566;BME280;56777;55.930;37.524;2024-01-15T06:36:42;100659.53;;;-0.59;100.00
69566;BME280;56777;55.930;37.524;2024-01-15T06:39:07;100665.66;;;-0.57;100.00
69566;BME280;56777;55.930;37.524;2024-01-15T06:41:33;100670.44;;;-0.63;100.00
69566;BME280;56777;55.930;37.524;2024-01-15T06:43:58;100668.09;;;-0.45;100.00
69566;BME280;56777;55.930;37.524;2024-01-15T06:46:24;100666.03;;;-0.51;100.00
69566;BME280;56777;55.930;37.524;2024-01-15T06:48:49;100661.59;;;-0.53;100.00
69566;BME280;56777;55.930;37.524;2024-01-15T06:51:16;100619.03;;;-0.76;100.00
69566;BME280;56777;55.930;37.524;2024-01-15T06:53:41;100657.34;;;-0.53;100.00
69566;BME280;56777;55.930;37.524;2024-01-15T06:56:07;100662.66;;;-0.50;99.26
69566;BME280;56777;55.930;37.524;2024-01-15T06:58:33;100664.13;;;-0.40;99.19
69566;BME280;56777;55.930;37.524;2024-01-15T07:00:58;100667.66;;;-0.38;98.72
69566;BME280;56777;55.930;37.524;2024-01-15T07:03:24;100669.81;;;-0.31;98.31
69566;BME280;56777;55.930;37.524;2024-01-15T07:05:49;100673.66;;;-0.24;97.22
69566;BME280;56777;55.930;37.524;2024-01-15T07:08:15;100662.53;;;-0.23;96.59
69566;BME280;56777;55.930;37.524;2024-01-15T07:10:41;100664.34;;;-0.22;95.47
69566;BME280;56777;55.930;37.524;2024-01-15T07:13:06;100664.69;;;-0.31;93.99
69566;BME280;56777;55.930;37.524;2024-01-15T07:15:34;100662.75;;;-0.20;94.23
69566;BME280;56777;55.930;37.524;2024-01-15T07:18:00;100676.34;;;-0.22;94.06
69566;BME280;56777;55.930;37.524;2024-01-15T07:20:26;100678.22;;;-0.20;92.91
69566;BME280;56777;55.930;37.524;2024-01-15T07:22:51;100690.13;;;-0.07;92.87
69566;BME280;56777;55.930;37.524;2024-01-15T07:25:17;100694.56;;;-0.05;92.66
69566;BME280;56777;55.930;37.524;2024-01-15T07:27:42;100700.25;;;0.05;91.86
69566;BME280;56777;55.930;37.524;2024-01-15T07:30:11;100703.84;;;0.21;91.68
69566;BME280;56777;55.930;37.524;2024-01-15T07:32:37;100711.19;;;0.01;91.57
69566;BME280;56777;55.930;37.524;2024-01-15T07:35:03;100694.56;;;-0.05;90.57
69566;BME280;56777;55.930;37.524;2024-01-15T07:37:28;100706.56;;;0.10;90.83
69566;BME280;56777;55.930;37.524;2024-01-15T07:39:54;100711.72;;;0.10;89.70
69566;BME280;56777;55.930;37.524;2024-01-15T07:42:19;100721.88;;;0.36;89.35
69566;BME280;56777;55.930;37.524;2024-01-15T07:44:45;100719.56;;;0.26;88.19
69566;BME280;56777;55.930;37.524;2024-01-15T07:47:10;100713.84;;;0.17;88.08
69566;BME280;56777;55.930;37.524;2024-01-15T07:49:36;100715.47;;;0.30;88.30
69566;BME280;56777;55.930;37.524;2024-01-15T07:52:01;100724.72;;;0.56;88.35
69566;BME280;56777;55.930;37.524;2024-01-15T07:54:27;100727.50;;;0.44;87.72
69566;BME280;56777;55.930;37.524;2024-01-15T07:56:56;100729.06;;;0.57;88.87
69566;BME280;56777;55.930;37.524;2024-01-15T07:59:23;100693.63;;;0.23;88.56
69566;BME280;56777;55.930;37.524;2024-01-15T08:01:49;100727.66;;;0.32;89.14
69566;BME280;56777;55.930;37.524;2024-01-15T08:04:14;100726.94;;;0.64;89.31
69566;BME280;56777;55.930;37.524;2024-01-15T08:06:40;100736.22;;;0.61;89.23
69566;BME280;56777;55.930;37.524;2024-01-15T08:09:06;100728.00;;;0.68;88.74
69566;BME280;56777;55.930;37.524;2024-01-15T08:11:32;100726.31;;;0.39;88.42
69566;BME280;56777;55.930;37.524;2024-01-15T08:13:58;100715.47;;;0.74;87.96
69566;BME280;56777;55.930;37.524;2024-01-15T08:16:23;100717.63;;;0.52;88.33
69566;BME280;56777;55.930;37.524;2024-01-15T08:18:50;100719.81;;;0.90;87.40
69566;BME280;56777;55.930;37.524;2024-01-15T08:21:16;100711.69;;;0.99;87.86
69566;BME280;56777;55.930;37.524;2024-01-15T08:23:41;100649.50;;;0.78;86.35
69566;BME280;56777;55.930;37.524;2024-01-15T08:26:07;100704.09;;;1.64;84.32
69566;BME280;56777;55.930;37.524;2024-01-15T08:28:34;100715.28;;;2.30;82.06
69566;BME280;56777;55.930;37.524;2024-01-15T08:30:59;100710.16;;;3.20;79.23
69566;BME280;56777;55.930;37.524;2024-01-15T08:33:25;100701.66;;;3.04;73.88
69566;BME280;56777;55.930;37.524;2024-01-15T08:35:50;100715.88;;;1.92;78.59
69566;BME280;56777;55.930;37.524;2024-01-15T08:38:16;100715.53;;;2.02;77.97
69566;BME280;56777;55.930;37.524;2024-01-15T08:40:42;100722.59;;;2.39;78.07
69566;BME280;56777;55.930;37.524;2024-01-15T08:43:07;100705.53;;;4.48;69.77
69566;BME280;56777;55.930;37.524;2024-01-15T08:45:33;100708.97;;;4.47;69.52
69566;BME280;56777;55.930;37.524;2024-01-15T08:47:59;100706.88;;;5.47;61.76
69566;BME280;56777;55.930;37.524;2024-01-15T08:50:24;100709.09;;;5.37;61.01
69566;BME280;56777;55.930;37.524;2024-01-15T08:52:50;100713.44;;;3.92;63.94
69566;BME280;56777;55.930;37.524;2024-01-15T08:55:16;100714.41;;;1.97;73.19
69566;BME280;56777;55.930;37.524;2024-01-15T08:57:41;100728.75;;;2.41;74.69
69566;BME280;56777;55.930;37.524;2024-01-15T09:00:07;100727.31;;;2.30;74.87
69566;BME280;56777;55.930;37.524;2024-01-15T09:02:38;100730.66;;;2.97;71.71
69566;BME280;56777;55.930;37.524;2024-01-15T09:05:10;100720.16;;;3.30;69.51
69566;BME280;56777;55.930;37.524;2024-01-15T09:07:36;100704.75;;;2.61;70.05
69566;BME280;56777;55.930;37.524;2024-01-15T09:10:02;100672.41;;;2.69;68.54
69566;BME280;56777;55.930;37.524;2024-01-15T09:12:27;100720.78;;;3.26;68.03
69566;BME280;56777;55.930;37.524;2024-01-15T09:14:53;100646.00;;;3.90;65.45
69566;BME280;56777;55.930;37.524;2024-01-15T09:17:20;100727.06;;;4.67;61.95
69566;BME280;56777;55.930;37.524;2024-01-15T09:19:47;100707.78;;;4.20;63.68
69566;BME280;56777;55.930;37.524;2024-01-15T09:22:13;100658.84;;;3.87;64.40
69566;BME280;56777;55.930;37.524;2024-01-15T09:24:42;100720.06;;;4.24;62.84
69566;BME280;56777;55.930;37.524;2024-01-15T09:27:08;100713.16;;;5.98;61.10
69566;BME280;56777;55.930;37.524;2024-01-15T09:29:33;100710.22;;;7.45;52.88
69566;BME280;56777;55.930;37.524;2024-01-15T09:31:59;100690.91;;;8.31;50.53
69566;BME280;56777;55.930;37.524;2024-01-15T09:34:25;100695.34;;;7.72;50.54
69566;BME280;56777;55.930;37.524;2024-01-15T09:36:50;100690.91;;;8.99;48.63
69566;BME280;56777;55.930;37.524;2024-01-15T09:39:16;100703.53;;;7.84;51.23
69566;BME280;56777;55.930;37.524;2024-01-15T09:41:41;100697.53;;;7.56;49.88
69566;BME280;56777;55.930;37.524;2024-01-15T09:44:08;100702.22;;;5.15;58.81
69566;BME280;56777;55.930;37.524;2024-01-15T09:46:35;100706.19;;;5.97;58.67
69566;BME280;56777;55.930;37.524;2024-01-15T09:49:01;100700.78;;;5.01;62.25
69566;BME280;56777;55.930;37.524;2024-01-15T09:51:31;100695.34;;;4.74;61.16
69566;BME280;56777;55.930;37.524;2024-01-15T09:53:56;100706.88;;;8.10;52.99
69566;BME280;56777;55.930;37.524;2024-01-15T09:56:22;100696.56;;;9.16;49.26
69566;BME280;56777;55.930;37.524;2024-01-15T09:58:48;100681.16;;;7.62;51.14
69566;BME280;56777;55.930;37.524;2024-01-15T10:01:16;100696.22;;;6.35;57.62
69566;BME280;56777;55.930;37.524;2024-01-15T10:03:42;100699.00;;;6.40;54.03
69566;BME280;56777;55.930;37.524;2024-01-15T10:06:08;100609.91;;;5.48;57.20
69566;BME280;56777;55.930;37.524;2024-01-15T10:08:36;100702.31;;;6.10;57.10
69566;BME280;56777;55.930;37.524;2024-01-15T10:11:02;100629.66;;;3.33;62.92
69566;BME280;56777;55.930;37.524;2024-01-15T10:13:30;100701.75;;;3.43;64.80
69566;BME280;56777;55.930;37.524;2024-01-15T10:15:56;100702.56;;;4.81;61.63
69566;BME280;56777;55.930;37.524;2024-01-15T10:18:23;100696.78;;;7.32;54.06
69566;BME280;56777;55.930;37.524;2024-01-15T10:20:49;100703.50;;;6.96;52.04
69566;BME280;56777;55.930;37.524;2024-01-15T10:23:14;100699.81;;;6.90;51.03
69566;BME280;56777;55.930;37.524;2024-01-15T10:25:43;100700.16;;;5.98;55.24
69566;BME280;56777;55.930;37.524;2024-01-15T10:28:08;100708.16;;;6.28;53.92
69566;BME280;56777;55.930;37.524;2024-01-15T10:30:35;100702.72;;;3.45;61.75
69566;BME280;56777;55.930;37.524;2024-01-15T10:33:02;100697.59;;;3.09;65.60
69566;BME280;56777;55.930;37.524;2024-01-15T10:35:30;100704.91;;;4.33;63.16
69566;BME280;56777;55.930;37.524;2024-01-15T10:37:56;100698.44;;;4.86;61.43
69566;BME280;56777;55.930;37.524;2024-01-15T10:40:21;100606.28;;;3.91;59.85
69566;BME280;56777;55.930;37.524;2024-01-15T10:42:47;100705.97;;;3.98;61.64
69566;BME280;56777;55.930;37.524;2024-01-15T10:45:13;100700.47;;;4.93;57.74
69566;BME280;56777;55.930;37.524;2024-01-15T10:47:40;100700.31;;;5.56;57.28
69566;BME280;56777;55.930;37.524;2024-01-15T10:50:07;100698.34;;;4.22;60.45
69566;BME280;56777;55.930;37.524;2024-01-15T10:52:36;100699.88;;;3.58;63.69
69566;BME280;56777;55.930;37.524;2024-01-15T10:55:03;100685.63;;;4.07;64.36
69566;BME280;56777;55.930;37.524;2024-01-15T10:57:29;100686.97;;;3.60;63.87
69566;BME280;56777;55.930;37.524;2024-01-15T10:59:55;100678.00;;;3.71;65.81
69566;BME280;56777;55.930;37.524;2024-01-15T11:02:21;100682.88;;;3.46;63.79
69566;BME280;56777;55.930;37.524;2024-01-15T11:04:47;100673.34;;;3.45;65.43
69566;BME280;56777;55.930;37.524;2024-01-15T11:07:13;100575.03;;;2.71;65.97
69566;BME280;56777;55.930;37.524;2024-01-15T11:09:39;100685.81;;;3.53;66.18
69566;BME280;56777;55.930;37.524;2024-01-15T11:12:12;100691.56;;;3.28;66.08
69566;BME280;56777;55.930;37.524;2024-01-15T11:14:39;100697.25;;;3.39;66.86
69566;BME280;56777;55.930;37.524;2024-01-15T11:17:06;100700.69;;;3.38;66.41
69566;BME280;56777;55.930;37.524;2024-01-15T11:20:01;100702.19;;;3.72;65.46
69566;BME280;56777;55.930;37.524;2024-01-15T11:25:12;100678.16;;;4.99;59.35
69566;BME280;56777;55.930;37.524;2024-01-15T11:27:46;100694.88;;;3.63;63.81
69566;BME280;56777;55.930;37.524;2024-01-15T11:30:19;100703.13;;;4.32;63.15
69566;BME280;56777;55.930;37.524;2024-01-15T11:32:47;100698.38;;;3.83;63.76
69566;BME280;56777;55.930;37.524;2024-01-15T11:35:13;100704.41;;;3.07;66.62
69566;BME280;56777;55.930;37.524;2024-01-15T11:40:21;100708.91;;;2.93;68.75
69566;BME280;56777;55.930;37.524;2024-01-15T11:42:48;100627.22;;;2.63;68.29
69566;BME280;56777;55.930;37.524;2024-01-15T11:45:19;100694.06;;;3.45;65.07
69566;BME280;56777;55.930;37.524;2024-01-15T11:50:21;100651.38;;;2.99;67.18
69566;BME280;56777;55.930;37.524;2024-01-15T11:52:59;100709.03;;;3.32;66.47
69566;BME280;56777;55.930;37.524;2024-01-15T11:55:39;100718.44;;;2.77;68.47
69566;BME280;56777;55.930;37.524;2024-01-15T11:58:09;100698.13;;;4.37;66.18
69566;BME280;56777;55.930;37.524;2024-01-15T12:00:39;100697.41;;;4.20;63.38
69566;BME280;56777;55.930;37.524;2024-01-15T12:03:05;100709.28;;;3.01;66.96
69566;BME280;56777;55.930;37.524;2024-01-15T12:05:31;100705.78;;;1.96;71.80
69566;BME280;56777;55.930;37.524;2024-01-15T12:07:56;100718.53;;;1.93;72.11
69566;BME280;56777;55.930;37.524;2024-01-15T12:10:22;100729.44;;;1.88;73.05
69566;BME280;56777;55.930;37.524;2024-01-15T12:15:34;100735.38;;;1.38;75.65
69566;BME280;56777;55.930;37.524;2024-01-15T12:18:00;100725.59;;;1.32;76.14
69566;BME280;56777;55.930;37.524;2024-01-15T12:20:31;100729.13;;;1.34;76.66
69566;BME280;56777;55.930;37.524;2024-01-15T12:22:57;100737.69;;;1.33;77.16
69566;BME280;56777;55.930;37.524;2024-01-15T12:25:24;100747.84;;;1.30;78.17
69566;BME280;56777;55.930;37.524;2024-01-15T12:27:51;100745.69;;;0.92;79.55
69566;BME280;56777;55.930;37.524;2024-01-15T12:30:16;100717.63;;;1.12;80.19
69566;BME280;56777;55.930;37.524;2024-01-15T12:32:42;100734.09;;;1.15;81.18
69566;BME280;56777;55.930;37.524;2024-01-15T12:35:09;100727.09;;;0.82;83.31
69566;BME280;56777;55.930;37.524;2024-01-15T12:37:36;100722.59;;;0.78;83.80
69566;BME280;56777;55.930;37.524;2024-01-15T12:40:03;100726.38;;;1.00;84.34
69566;BME280;56777;55.930;37.524;2024-01-15T12:42:32;100708.41;;;1.01;84.92